sensor_id;sensor_type;location;lat;lon;timestamp;pressure;altitude;pressure_sealevel;temperature;humidity
80321;BME280;69633;47.066;15.450;2023-11-21T00:02:23;97126.50;;;7.86;77.76
80321;BME280;69633;47.066;15.450;2023-11-21T00:04:49;97120.16;;;7.78;77.70
80321;BME280;69633;47.066;15.450;2023-11-21T00:07:14;97125.59;;;7.82;77.61
80321;BME280;69633;47.066;15.450;2023-11-21T00:09:41;97123.81;;;7.95;76.97
80321;BME280;69633;47.066;15.450;2023-11-21T00:12:07;97130.84;;;8.11;76.50
80321;BME280;69633;47.066;15.450;2023-11-21T00:14:38;97123.22;;;8.10;76.46
80321;BME280;69633;47.066;15.450;2023-11-21T00:17:04;97124.19;;;8.05;76.85
80321;BME280;69633;47.066;15.450;2023-11-21T00:19:31;97111.94;;;8.01;76.89
80321;BME280;69633;47.066;15.450;2023-11-21T00:21:57;97113.50;;;8.02;77.25
80321;BME280;69633;47.066;15.450;2023-11-21T00:24:24;97114.53;;;8.09;76.94
80321;BME280;69633;47.066;15.450;2023-11-21T00:26:50;97114.00;;;8.16;76.73
80321;BME280;69633;47.066;15.450;2023-11-21T00:29:16;97115.94;;;8.27;76.27
80321;BME280;69633;47.066;15.450;2023-11-21T00:31:43;97132.78;;;8.23;76.16
80321;BME280;69633;47.066;15.450;2023-11-21T00:34:11;97130.66;;;8.16;76.53
80321;BME280;69633;47.066;15.450;2023-11-21T00:36:36;97132.63;;;8.19;76.42
80321;BME280;69633;47.066;15.450;2023-11-21T00:39:02;97130.25;;;8.26;76.37
80321;BME280;69633;47.066;15.450;2023-11-21T00:41:28;97137.38;;;8.35;76.01
80321;BME280;69633;47.066;15.450;2023-11-21T00:43:54;97133.00;;;8.39;75.87
80321;BME280;69633;47.066;15.450;2023-11-21T00:46:20;97132.91;;;8.26;76.33
80321;BME280;69633;47.066;15.450;2023-11-21T00:48:46;97135.38;;;8.32;76.23
80321;BME280;69633;47.066;15.450;2023-11-21T00:51:11;97134.53;;;8.40;76.00
80321;BME280;69633;47.066;15.450;2023-11-21T00:53:37;97139.84;;;8.40;76.23
80321;BME280;69633;47.066;15.450;2023-11-21T00:56:02;97142.47;;;8.40;75.94
80321;BME280;69633;47.066;15.450;2023-11-21T00:58:28;97141.06;;;8.42;75.75
80321;BME280;69633;47.066;15.450;2023-11-21T01:00:53;97141.50;;;8.44;75.89
80321;BME280;69633;47.066;15.450;2023-11-21T01:03:19;97129.63;;;8.50;75.61
80321;BME280;69633;47.066;15.450;2023-11-21T01:05:45;97135.03;;;8.33;75.98
80321;BME280;69633;47.066;15.450;2023-11-21T01:08:11;97129.94;;;8.07;77.47
80321;BME280;69633;47.066;15.450;2023-11-21T01:10:36;97127.28;;;8.07;77.23
80321;BME280;69633;47.066;15.450;2023-11-21T01:13:02;97124.31;;;8.09;77.07
80321;BME280;69633;47.066;15.450;2023-11-21T01:15:31;97125.09;;;8.09;77.08
80321;BME280;69633;47.066;15.450;2023-11-21T01:17:56;97128.66;;;8.13;77.25
80321;BME280;69633;47.066;15.450;2023-11-21T01:20:22;97120.97;;;8.20;77.04
80321;BME280;69633;47.066;15.450;2023-11-21T01:22:48;97117.03;;;8.26;76.40
80321;BME280;69633;47.066;15.450;2023-11-21T01:25:14;97116.34;;;8.38;76.17
80321;BME280;69633;47.066;15.450;2023-11-21T01:27:41;97105.06;;;8.29;76.58
80321;BME280;69633;47.066;15.450;2023-11-21T01:30:07;97103.44;;;8.16;76.80
80321;BME280;69633;47.066;15.450;2023-11-21T01:32:34;97100.19;;;8.10;77.15
80321;BME280;69633;47.066;15.450;2023-11-21T01:35:00;97086.84;;;8.07;77.21
80321;BME280;69633;47.066;15.450;2023-11-21T01:37:25;97089.19;;;8.08;77.57
80321;BME280;69633;47.066;15.450;2023-11-21T01:39:54;97088.72;;;8.06;77.16
80321;BME280;69633;47.066;15.450;2023-11-21T01:42:21;97091.94;;;7.91;78.13
80321;BME280;69633;47.066;15.450;2023-11-21T01:44:46;97083.72;;;7.93;77.71
80321;BME280;69633;47.066;15.450;2023-11-21T01:47:12;97090.16;;;8.04;77.41
80321;BME280;69633;47.066;15.450;2023-11-21T01:49:38;97093.31;;;7.97;77.34
80321;BME280;69633;47.066;15.450;2023-11-21T01:52:05;97086.59;;;8.00;76.80
80321;BME280;69633;47.066;15.450;2023-11-21T01:54:31;97095.94;;;8.18;76.45
80321;BME280;69633;47.066;15.450;2023-11-21T01:56:58;97088.13;;;8.21;76.38
80321;BME280;69633;47.066;15.450;2023-11-21T01:59:29;97089.25;;;8.20;75.81
80321;BME280;69633;47.066;15.450;2023-11-21T02:01:57;97085.84;;;8.20;76.00
80321;BME280;69633;47.066;15.450;2023-11-21T02:04:23;97089.25;;;8.20;76.25
80321;BME280;69633;47.066;15.450;2023-11-21T02:06:48;97083.31;;;8.23;75.72
80321;BME280;69633;47.066;15.450;2023-11-21T02:09:16;97080.50;;;8.29;75.84
80321;BME280;69633;47.066;15.450;2023-11-21T02:11:43;97076.44;;;8.31;75.58
80321;BME280;69633;47.066;15.450;2023-11-21T02:14:09;97076.88;;;8.33;75.35
80321;BME280;69633;47.066;15.450;2023-11-21T02:16:35;97080.19;;;8.30;74.70
80321;BME280;69633;47.066;15.450;2023-11-21T02:19:03;97069.75;;;8.25;75.28
80321;BME280;69633;47.066;15.450;2023-11-21T02:21:34;97071.19;;;8.22;74.76
80321;BME280;69633;47.066;15.450;2023-11-21T02:24:01;97069.44;;;8.26;75.09
80321;BME280;69633;47.066;15.450;2023-11-21T02:26:27;97079.53;;;8.33;74.89
80321;BME280;69633;47.066;15.450;2023-11-21T02:28:52;97071.72;;;8.37;74.68
80321;BME280;69633;47.066;15.450;2023-11-21T02:31:18;97073.16;;;8.34;74.73
80321;BME280;69633;47.066;15.450;2023-11-21T02:33:44;97075.19;;;8.29;75.27
80321;BME280;69633;47.066;15.450;2023-11-21T02:36:10;97066.03;;;8.26;75.16
80321;BME280;69633;47.066;15.450;2023-11-21T02:38:35;97069.97;;;8.20;74.98
80321;BME280;69633;47.066;15.450;2023-11-21T02:41:00;97062.81;;;8.20;75.12
80321;BME280;69633;47.066;15.450;2023-11-21T02:43:26;97062.44;;;8.31;75.03
80321;BME280;69633;47.066;15.450;2023-11-21T02:45:51;97057.53;;;8.41;74.77
80321;BME280;69633;47.066;15.450;2023-11-21T02:48:17;97069.00;;;8.45;73.60
80321;BME280;69633;47.066;15.450;2023-11-21T02:50:42;97071.44;;;8.50;73.85
80321;BME280;69633;47.066;15.450;2023-11-21T02:53:09;97065.38;;;8.50;74.11
80321;BME280;69633;47.066;15.450;2023-11-21T02:55:36;97064.69;;;8.41;74.49
80321;BME280;69633;47.066;15.450;2023-11-21T02:58:02;97064.13;;;8.35;74.54
80321;BME280;69633;47.066;15.450;2023-11-21T03:00:29;97064.44;;;8.34;75.06
80321;BME280;69633;47.066;15.450;2023-11-21T03:02:55;97069.00;;;8.24;75.16
80321;BME280;69633;47.066;15.450;2023-11-21T03:05:21;97071.84;;;8.19;75.32
80321;BME280;69633;47.066;15.450;2023-11-21T03:07:47;97069.25;;;8.11;76.08
80321;BME280;69633;47.066;15.450;2023-11-21T03:10:12;97070.94;;;8.15;76.00
80321;BME280;69633;47.066;15.450;2023-11-21T03:12:38;97074.03;;;8.17;76.09
80321;BME280;69633;47.066;15.450;2023-11-21T03:15:08;97062.16;;;8.23;75.61
80321;BME280;69633;47.066;15.450;2023-11-21T03:17:33;97073.19;;;8.25;75.49
80321;BME280;69633;47.066;15.450;2023-11-21T03:20:00;97080.34;;;8.25;75.68
80321;BME280;69633;47.066;15.450;2023-11-21T03:22:25;97087.34;;;8.30;75.11
80321;BME280;69633;47.066;15.450;2023-11-21T03:24:51;97081.44;;;8.24;75.46
80321;BME280;69633;47.066;15.450;2023-11-21T03:27:18;97078.81;;;8.24;76.12
80321;BME280;69633;47.066;15.450;2023-11-21T03:29:43;97083.28;;;8.32;75.76
80321;BME280;69633;47.066;15.450;2023-11-21T03:32:10;97090.22;;;8.37;75.96
80321;BME280;69633;47.066;15.450;2023-11-21T03:34:53;97090.94;;;8.46;75.78
80321;BME280;69633;47.066;15.450;2023-11-21T03:37:18;97081.91;;;8.47;74.79
80321;BME280;69633;47.066;15.450;2023-11-21T03:39:46;97088.97;;;8.55;75.06
80321;BME280;69633;47.066;15.450;2023-11-21T03:42:11;97089.66;;;8.64;74.34
80321;BME280;69633;47.066;15.450;2023-11-21T03:44:37;97081.06;;;8.67;74.41
80321;BME280;69633;47.066;15.450;2023-11-21T03:47:03;97085.59;;;8.66;74.58
80321;BME280;69633;47.066;15.450;2023-11-21T03:49:29;97089.47;;;8.69;74.54
80321;BME280;69633;47.066;15.450;2023-11-21T03:51:55;97087.38;;;8.74;74.90
80321;BME280;69633;47.066;15.450;2023-11-21T03:54:20;97099.09;;;8.86;74.28
80321;BME280;69633;47.066;15.450;2023-11-21T03:56:46;97103.19;;;8.95;74.17
80321;BME280;69633;47.066;15.450;2023-11-21T03:59:11;97105.41;;;9.05;73.67
80321;BME280;69633;47.066;15.450;2023-11-21T04:01:37;97103.97;;;9.08;73.97
80321;BME280;69633;47.066;15.450;2023-11-21T04:04:03;97107.41;;;9.08;74.00
80321;BME280;69633;47.066;15.450;2023-11-21T04:06:29;97114.03;;;9.02;74.30
80321;BME280;69633;47.066;15.450;2023-11-21T04:08:55;97114.66;;;8.87;75.97
80321;BME280;69633;47.066;15.450;2023-11-21T04:11:20;97112.28;;;8.73;76.25
80321;BME280;69633;47.066;15.450;2023-11-21T04:13:46;97111.28;;;8.66;76.87
80321;BME280;69633;47.066;15.450;2023-11-21T04:16:12;97113.28;;;8.69;76.55
80321;BME280;69633;47.066;15.450;2023-11-21T04:18:38;97117.56;;;8.73;76.57
80321;BME280;69633;47.066;15.450;2023-11-21T04:21:07;97121.44;;;8.76;76.90
80321;BME280;69633;47.066;15.450;2023-11-21T04:23:33;97124.78;;;8.85;76.62
80321;BME280;69633;47.066;15.450;2023-11-21T04:25:59;97121.28;;;8.93;76.73
80321;BME280;69633;47.066;15.450;2023-11-21T04:28:25;97118.41;;;8.98;76.10
80321;BME280;69633;47.066;15.450;2023-11-21T04:30:50;97099.56;;;8.88;76.89
80321;BME280;69633;47.066;15.450;2023-11-21T04:33:16;97105.03;;;8.83;77.64
80321;BME280;69633;47.066;15.450;2023-11-21T04:35:41;97100.06;;;8.81;77.94
80321;BME280;69633;47.066;15.450;2023-11-21T04:38:07;97080.91;;;8.84;77.94
80321;BME280;69633;47.066;15.450;2023-11-21T04:40:33;97086.28;;;8.76;78.24
80321;BME280;69633;47.066;15.450;2023-11-21T04:42:58;97084.84;;;8.66;78.84
80321;BME280;69633;47.066;15.450;2023-11-21T04:45:24;97092.91;;;8.49;79.47
80321;BME280;69633;47.066;15.450;2023-11-21T04:47:50;97093.53;;;8.34;79.63
80321;BME280;69633;47.066;15.450;2023-11-21T04:50:15;97105.38;;;8.27;80.14
80321;BME280;69633;47.066;15.450;2023-11-21T04:52:41;97099.47;;;8.31;80.05
80321;BME280;69633;47.066;15.450;2023-11-21T04:55:07;97098.16;;;8.37;80.12
80321;BME280;69633;47.066;15.450;2023-11-21T04:57:38;97108.84;;;8.40;81.13
80321;BME280;69633;47.066;15.450;2023-11-21T05:00:08;97110.94;;;8.35;81.55
80321;BME280;69633;47.066;15.450;2023-11-21T05:02:33;97110.94;;;8.35;81.03
80321;BME280;69633;47.066;15.450;2023-11-21T05:05:03;97107.44;;;8.43;80.42
80321;BME280;69633;47.066;15.450;2023-11-21T05:07:32;97107.81;;;8.53;80.25
80321;BME280;69633;47.066;15.450;2023-11-21T05:09:57;97114.00;;;8.57;80.34
80321;BME280;69633;47.066;15.450;2023-11-21T05:12:24;97116.59;;;8.66;80.52
80321;BME280;69633;47.066;15.450;2023-11-21T05:14:51;97118.22;;;8.70;79.83
80321;BME280;69633;47.066;15.450;2023-11-21T05:17:16;97122.75;;;8.70;80.90
80321;BME280;69633;47.066;15.450;2023-11-21T05:19:42;97123.25;;;8.84;80.04
80321;BME280;69633;47.066;15.450;2023-11-21T05:22:08;97122.25;;;8.89;79.10
80321;BME280;69633;47.066;15.450;2023-11-21T05:24:34;97123.59;;;8.95;79.34
80321;BME280;69633;47.066;15.450;2023-11-21T05:27:00;97119.88;;;8.96;79.39
80321;BME280;69633;47.066;15.450;2023-11-21T05:29:25;97127.47;;;8.97;78.71
80321;BME280;69633;47.066;15.450;2023-11-21T05:31:51;97132.72;;;8.85;79.62
80321;BME280;69633;47.066;15.450;2023-11-21T05:34:18;97133.25;;;8.79;80.07
80321;BME280;69633;47.066;15.450;2023-11-21T05:36:43;97130.38;;;8.71;79.94
80321;BME280;69633;47.066;15.450;2023-11-21T05:39:11;97137.34;;;8.76;80.47
80321;BME280;69633;47.066;15.450;2023-11-21T05:41:36;97135.53;;;8.68;80.67
80321;BME280;69633;47.066;15.450;2023-11-21T05:44:02;97137.59;;;8.62;80.34
80321;BME280;69633;47.066;15.450;2023-11-21T05:46:28;97134.75;;;8.67;79.92
80321;BME280;69633;47.066;15.450;2023-11-21T05:48:53;97133.91;;;8.76;80.02
80321;BME280;69633;47.066;15.450;2023-11-21T05:51:18;97136.44;;;8.72;80.56
80321;BME280;69633;47.066;15.450;2023-11-21T05:53:44;97140.50;;;8.69;79.31
80321;BME280;69633;47.066;15.450;2023-11-21T05:56:10;97145.03;;;8.69;79.67
80321;BME280;69633;47.066;15.450;2023-11-21T05:58:35;97146.91;;;8.68;79.58
80321;BME280;69633;47.066;15.450;2023-11-21T06:01:01;97150.88;;;8.74;79.80
80321;BME280;69633;47.066;15.450;2023-11-21T06:03:26;97162.22;;;8.75;80.35
80321;BME280;69633;47.066;15.450;2023-11-21T06:05:52;97163.97;;;8.71;81.21
80321;BME280;69633;47.066;15.450;2023-11-21T06:08:17;97178.28;;;8.70;80.51
80321;BME280;69633;47.066;15.450;2023-11-21T06:10:43;97181.84;;;8.74;80.30
80321;BME280;69633;47.066;15.450;2023-11-21T06:13:09;97175.03;;;8.73;80.16
80321;BME280;69633;47.066;15.450;2023-11-21T06:15:36;97179.66;;;8.76;80.71
80321;BME280;69633;47.066;15.450;2023-11-21T06:18:01;97171.50;;;8.81;80.37
80321;BME280;69633;47.066;15.450;2023-11-21T06:20:27;97175.16;;;8.77;79.83
80321;BME280;69633;47.066;15.450;2023-11-21T06:22:52;97174.56;;;8.71;80.69
80321;BME280;69633;47.066;15.450;2023-11-21T06:25:19;97180.69;;;8.63;81.47
80321;BME280;69633;47.066;15.450;2023-11-21T06:27:46;97174.44;;;8.67;80.80
80321;BME280;69633;47.066;15.450;2023-11-21T06:30:14;97174.00;;;8.65;80.17
80321;BME280;69633;47.066;15.450;2023-11-21T06:32:40;97171.06;;;8.79;79.90
80321;BME280;69633;47.066;15.450;2023-11-21T06:35:07;97176.34;;;8.79;80.15
80321;BME280;69633;47.066;15.450;2023-11-21T06:37:33;97175.41;;;8.84;80.81
80321;BME280;69633;47.066;15.450;2023-11-21T06:40:00;97182.13;;;8.93;80.80
80321;BME280;69633;47.066;15.450;2023-11-21T06:42:26;97185.50;;;8.82;80.84
80321;BME280;69633;47.066;15.450;2023-11-21T06:44:52;97195.31;;;8.81;80.42
80321;BME280;69633;47.066;15.450;2023-11-21T06:47:19;97189.06;;;8.86;81.23
80321;BME280;69633;47.066;15.450;2023-11-21T06:49:47;97193.78;;;8.80;80.84
80321;BME280;69633;47.066;15.450;2023-11-21T06:52:15;97195.53;;;8.76;80.69
80321;BME280;69633;47.066;15.450;2023-11-21T06:54:41;97192.91;;;8.76;81.17
80321;BME280;69633;47.066;15.450;2023-11-21T06:57:06;97202.09;;;8.70;81.11
80321;BME280;69633;47.066;15.450;2023-11-21T06:59:33;97211.28;;;8.72;82.28
80321;BME280;69633;47.066;15.450;2023-11-21T07:01:58;97202.16;;;8.82;81.98
80321;BME280;69633;47.066;15.450;2023-11-21T07:04:24;97200.66;;;8.93;82.08
80321;BME280;69633;47.066;15.450;2023-11-21T07:06:51;97199.16;;;9.04;81.30
80321;BME280;69633;47.066;15.450;2023-11-21T07:09:17;97203.78;;;9.07;80.93
80321;BME280;69633;47.066;15.450;2023-11-21T07:11:42;97204.44;;;9.04;81.92
80321;BME280;69633;47.066;15.450;2023-11-21T07:14:08;97209.50;;;8.97;82.03
80321;BME280;69633;47.066;15.450;2023-11-21T07:16:35;97211.91;;;8.90;82.10
80321;BME280;69633;47.066;15.450;2023-11-21T07:19:05;97202.22;;;8.94;82.39
80321;BME280;69633;47.066;15.450;2023-11-21T07:21:34;97204.69;;;8.99;82.63
80321;BME280;69633;47.066;15.450;2023-11-21T07:24:01;97216.16;;;9.03;82.67
80321;BME280;69633;47.066;15.450;2023-11-21T07:26:27;97205.28;;;9.17;82.51
80321;BME280;69633;47.066;15.450;2023-11-21T07:28:53;97211.22;;;9.14;82.18
80321;BME280;69633;47.066;15.450;2023-11-21T07:31:19;97210.09;;;9.03;83.07
80321;BME280;69633;47.066;15.450;2023-11-21T07:33:45;97217.91;;;8.99;83.08
80321;BME280;69633;47.066;15.450;2023-11-21T07:36:13;97223.81;;;8.84;83.82
80321;BME280;69633;47.066;15.450;2023-11-21T07:38:39;97223.81;;;8.84;83.86
80321;BME280;69633;47.066;15.450;2023-11-21T07:41:05;97211.53;;;8.80;83.75
80321;BME280;69633;47.066;15.450;2023-11-21T07:43:33;97207.50;;;8.94;83.56
80321;BME280;69633;47.066;15.450;2023-11-21T07:46:04;97205.56;;;9.03;83.14
80321;BME280;69633;47.066;15.450;2023-11-21T07:48:36;97208.28;;;9.28;82.55
80321;BME280;69633;47.066;15.450;2023-11-21T07:51:02;97209.44;;;9.51;82.29
80321;BME280;69633;47.066;15.450;2023-11-21T07:53:32;97212.44;;;9.74;81.40
80321;BME280;69633;47.066;15.450;2023-11-21T07:56:05;97206.13;;;9.90;81.17
80321;BME280;69633;47.066;15.450;2023-11-21T07:58:31;97209.25;;;9.92;80.93
80321;BME280;69633;47.066;15.450;2023-11-21T08:00:59;97209.22;;;9.80;80.97
80321;BME280;69633;47.066;15.450;2023-11-21T08:03:25;97210.56;;;9.74;80.98
80321;BME280;69633;47.066;15.450;2023-11-21T08:05:52;97213.00;;;9.67;81.89
80321;BME280;69633;47.066;15.450;2023-11-21T08:08:18;97216.41;;;9.67;81.86
80321;BME280;69633;47.066;15.450;2023-11-21T08:10:44;97213.19;;;9.86;81.59
80321;BME280;69633;47.066;15.450;2023-11-21T08:13:22;97200.31;;;9.97;81.35
80321;BME280;69633;47.066;15.450;2023-11-21T08:15:47;97205.16;;;10.07;80.68
80321;BME280;69633;47.066;15.450;2023-11-21T08:18:13;97208.34;;;10.12;80.12
80321;BME280;69633;47.066;15.450;2023-11-21T08:20:40;97206.81;;;10.11;79.96
80321;BME280;69633;47.066;15.450;2023-11-21T08:23:05;97200.06;;;10.14;80.48
80321;BME280;69633;47.066;15.450;2023-11-21T08:25:32;97199.75;;;10.03;81.79
80321;BME280;69633;47.066;15.450;2023-11-21T08:27:58;97189.13;;;10.03;81.53
80321;BME280;69633;47.066;15.450;2023-11-21T08:30:24;97192.47;;;10.00;81.15
80321;BME280;69633;47.066;15.450;2023-11-21T08:32:50;97185.50;;;9.96;80.76
80321;BME280;69633;47.066;15.450;2023-11-21T08:35:17;97192.00;;;9.98;80.95
80321;BME280;69633;47.066;15.450;2023-11-21T08:37:43;97188.03;;;9.92;80.87
80321;BME280;69633;47.066;15.450;2023-11-21T08:40:09;97188.03;;;9.92;81.53
80321;BME280;69633;47.066;15.450;2023-11-21T08:42:35;97186.47;;;9.91;81.61
80321;BME280;69633;47.066;15.450;2023-11-21T08:45:01;97191.56;;;10.08;81.59
80321;BME280;69633;47.066;15.450;2023-11-21T08:47:26;97184.69;;;10.32;80.75
80321;BME280;69633;47.066;15.450;2023-11-21T08:49:52;97188.97;;;10.48;80.83
80321;BME280;69633;47.066;15.450;2023-11-21T08:52:19;97190.81;;;10.60;80.19
80321;BME280;69633;47.066;15.450;2023-11-21T08:54:49;97181.47;;;10.78;78.86
80321;BME280;69633;47.066;15.450;2023-11-21T08:57:22;97186.94;;;10.97;78.27
80321;BME280;69633;47.066;15.450;2023-11-21T08:59:47;97180.88;;;11.12;78.17
80321;BME280;69633;47.066;15.450;2023-11-21T09:02:13;97184.22;;;11.25;77.68
80321;BME280;69633;47.066;15.450;2023-11-21T09:04:38;97180.22;;;11.47;77.19
80321;BME280;69633;47.066;15.450;2023-11-21T09:07:04;97183.31;;;11.49;76.46
80321;BME280;69633;47.066;15.450;2023-11-21T09:09:29;97181.44;;;11.65;76.64
80321;BME280;69633;47.066;15.450;2023-11-21T09:11:55;97184.00;;;11.77;76.08
80321;BME280;69633;47.066;15.450;2023-11-21T09:14:20;97176.72;;;11.90;75.35
80321;BME280;69633;47.066;15.450;2023-11-21T09:16:46;97173.81;;;11.95;75.04
80321;BME280;69633;47.066;15.450;2023-11-21T09:19:12;97170.84;;;12.00;74.31
80321;BME280;69633;47.066;15.450;2023-11-21T09:21:39;97175.59;;;11.91;74.40
80321;BME280;69633;47.066;15.450;2023-11-21T09:24:05;97176.25;;;12.03;73.73
80321;BME280;69633;47.066;15.450;2023-11-21T09:26:30;97187.59;;;12.00;73.76
80321;BME280;69633;47.066;15.450;2023-11-21T09:28:56;97184.44;;;11.95;73.07
80321;BME280;69633;47.066;15.450;2023-11-21T09:31:22;97181.25;;;11.89;73.38
80321;BME280;69633;47.066;15.450;2023-11-21T09:33:49;97182.41;;;11.88;72.41
80321;BME280;69633;47.066;15.450;2023-11-21T09:36:14;97182.13;;;11.78;72.59
80321;BME280;69633;47.066;15.450;2023-11-21T09:38:41;97179.28;;;11.71;73.41
80321;BME280;69633;47.066;15.450;2023-11-21T09:41:14;97182.47;;;11.76;73.11
80321;BME280;69633;47.066;15.450;2023-11-21T09:43:45;97175.63;;;11.75;73.88
80321;BME280;69633;47.066;15.450;2023-11-21T09:46:12;97176.03;;;11.77;73.50
80321;BME280;69633;47.066;15.450;2023-11-21T09:48:48;97173.78;;;11.48;73.38
80321;BME280;69633;47.066;15.450;2023-11-21T09:51:18;97167.88;;;11.39;74.16
80321;BME280;69633;47.066;15.450;2023-11-21T09:53:47;97170.03;;;11.49;74.68
80321;BME280;69633;47.066;15.450;2023-11-21T09:56:15;97173.28;;;11.58;72.73
80321;BME280;69633;47.066;15.450;2023-11-21T09:58:45;97168.47;;;11.63;71.77
80321;BME280;69633;47.066;15.450;2023-11-21T10:01:13;97156.28;;;11.62;72.77
80321;BME280;69633;47.066;15.450;2023-11-21T10:03:41;97152.88;;;11.78;73.29
80321;BME280;69633;47.066;15.450;2023-11-21T10:06:07;97149.63;;;11.84;72.38
80321;BME280;69633;47.066;15.450;2023-11-21T10:08:34;97152.38;;;11.72;71.70
80321;BME280;69633;47.066;15.450;2023-11-21T10:11:02;97155.09;;;11.60;72.28
80321;BME280;69633;47.066;15.450;2023-11-21T10:13:32;97159.31;;;11.61;73.29
80321;BME280;69633;47.066;15.450;2023-11-21T10:15:59;97154.41;;;11.63;71.82
80321;BME280;69633;47.066;15.450;2023-11-21T10:18:26;97164.88;;;11.56;72.39
80321;BME280;69633;47.066;15.450;2023-11-21T10:20:52;97151.41;;;11.49;71.68
80321;BME280;69633;47.066;15.450;2023-11-21T10:23:20;97158.34;;;11.38;72.91
80321;BME280;69633;47.066;15.450;2023-11-21T10:25:46;97160.06;;;11.30;72.01
80321;BME280;69633;47.066;15.450;2023-11-21T10:28:12;97158.44;;;11.26;72.31
80321;BME280;69633;47.066;15.450;2023-11-21T10:30:38;97163.06;;;11.29;72.66
80321;BME280;69633;47.066;15.450;2023-11-21T10:33:07;97159.66;;;11.28;73.58
80321;BME280;69633;47.066;15.450;2023-11-21T10:35:45;97158.44;;;11.41;73.28
80321;BME280;69633;47.066;15.450;2023-11-21T10:38:19;97171.13;;;11.48;73.57
80321;BME280;69633;47.066;15.450;2023-11-21T10:40:46;97153.91;;;11.57;73.77
80321;BME280;69633;47.066;15.450;2023-11-21T10:43:13;97145.84;;;11.54;73.92
80321;BME280;69633;47.066;15.450;2023-11-21T10:45:40;97148.34;;;11.47;74.13
80321;BME280;69633;47.066;15.450;2023-11-21T10:48:06;97153.06;;;11.53;74.21
80321;BME280;69633;47.066;15.450;2023-11-21T10:50:37;97153.31;;;11.64;72.66
80321;BME280;69633;47.066;15.450;2023-11-21T10:53:03;97151.75;;;11.63;72.21
80321;BME280;69633;47.066;15.450;2023-11-21T10:55:30;97162.50;;;11.51;72.67
80321;BME280;69633;47.066;15.450;2023-11-21T10:57:59;97157.84;;;11.63;72.73
80321;BME280;69633;47.066;15.450;2023-11-21T11:00:26;97160.94;;;11.50;72.80
80321;BME280;69633;47.066;15.450;2023-11-21T11:02:53;97155.88;;;11.45;73.77
80321;BME280;69633;47.066;15.450;2023-11-21T11:05:21;97149.00;;;11.44;72.73
80321;BME280;69633;47.066;15.450;2023-11-21T11:08:03;97149.38;;;11.42;72.73
80321;BME280;69633;47.066;15.450;2023-11-21T11:10:29;97150.03;;;11.55;73.34
80321;BME280;69633;47.066;15.450;2023-11-21T11:12:56;97149.53;;;11.65;72.30
80321;BME280;69633;47.066;15.450;2023-11-21T11:15:23;97151.50;;;11.68;72.33
80321;BME280;69633;47.066;15.450;2023-11-21T11:17:49;97147.66;;;11.50;71.72
80321;BME280;69633;47.066;15.450;2023-11-21T11:20:16;97140.34;;;11.62;71.92
80321;BME280;69633;47.066;15.450;2023-11-21T11:22:57;97141.66;;;11.53;72.49
80321;BME280;69633;47.066;15.450;2023-11-21T11:38:22;97152.97;;;11.66;71.16
80321;BME280;69633;47.066;15.450;2023-11-21T11:40:52;97132.81;;;11.80;71.12
80321;BME280;69633;47.066;15.450;2023-11-21T11:43:26;97138.47;;;11.79;71.35
80321;BME280;69633;47.066;15.450;2023-11-21T11:45:55;97139.09;;;11.72;71.45
80321;BME280;69633;47.066;15.450;2023-11-21T11:48:22;97134.53;;;11.57;71.75
80321;BME280;69633;47.066;15.450;2023-11-21T11:51:15;97144.81;;;11.43;72.39
80321;BME280;69633;47.066;15.450;2023-11-21T11:53:47;97143.88;;;11.51;72.25
80321;BME280;69633;47.066;15.450;2023-11-21T11:58:53;97135.03;;;11.62;71.69
80321;BME280;69633;47.066;15.450;2023-11-21T12:01:20;97137.25;;;11.60;71.48
80321;BME280;69633;47.066;15.450;2023-11-21T12:06:36;97137.19;;;11.57;71.39
80321;BME280;69633;47.066;15.450;2023-11-21T12:09:02;97140.63;;;11.42;72.60
80321;BME280;69633;47.066;15.450;2023-11-21T12:11:31;97132.63;;;11.10;72.08
80321;BME280;69633;47.066;15.450;2023-11-21T12:13:58;97129.97;;;11.10;72.24
80321;BME280;69633;47.066;15.450;2023-11-21T12:16:25;97135.97;;;11.07;72.28
80321;BME280;69633;47.066;15.450;2023-11-21T12:18:53;97132.56;;;11.23;73.24
80321;BME280;69633;47.066;15.450;2023-11-21T12:21:20;97125.84;;;11.60;72.44
80321;BME280;69633;47.066;15.450;2023-11-21T12:23:46;97125.63;;;11.81;70.70
80321;BME280;69633;47.066;15.450;2023-11-21T12:26:13;97114.22;;;11.80;70.88
80321;BME280;69633;47.066;15.450;2023-11-21T12:28:39;97116.16;;;11.83;71.90
80321;BME280;69633;47.066;15.450;2023-11-21T12:31:05;97120.19;;;11.77;70.44
80321;BME280;69633;47.066;15.450;2023-11-21T12:33:33;97103.50;;;11.77;70.90
80321;BME280;69633;47.066;15.450;2023-11-21T12:35:58;97108.44;;;11.78;70.87
80321;BME280;69633;47.066;15.450;2023-11-21T12:38:24;97111.72;;;11.87;70.76
80321;BME280;69633;47.066;15.450;2023-11-21T12:40:50;97119.06;;;11.94;70.55
80321;BME280;69633;47.066;15.450;2023-11-21T12:43:17;97117.59;;;11.96;70.22
80321;BME280;69633;47.066;15.450;2023-11-21T12:45:43;97107.38;;;11.98;70.29
80321;BME280;69633;47.066;15.450;2023-11-21T12:48:09;97107.69;;;11.78;70.84
80321;BME280;69633;47.066;15.450;2023-11-21T12:50:37;97096.38;;;11.65;71.83
80321;BME280;69633;47.066;15.450;2023-11-21T12:53:08;97099.19;;;11.56;71.87
80321;BME280;69633;47.066;15.450;2023-11-21T12:55:36;97097.66;;;11.55;71.57
80321;BME280;69633;47.066;15.450;2023-11-21T12:58:07;97092.41;;;11.59;71.35
80321;BME280;69633;47.066;15.450;2023-11-21T13:03:04;97089.25;;;11.69;71.52
80321;BME280;69633;47.066;15.450;2023-11-21T13:05:36;97088.88;;;11.71;72.04
80321;BME280;69633;47.066;15.450;2023-11-21T13:08:06;97085.72;;;11.65;72.45
80321;BME280;69633;47.066;15.450;2023-11-21T13:10:34;97084.50;;;11.62;72.57
80321;BME280;69633;47.066;15.450;2023-11-21T13:13:06;97077.69;;;11.46;72.30
80321;BME280;69633;47.066;15.450;2023-11-21T13:15:38;97086.53;;;11.34;73.08
80321;BME280;69633;47.066;15.450;2023-11-21T13:18:05;97076.06;;;11.41;73.43